Time;durP1;ratioP1;P1;durP2;ratioP2;P2;SDS_P1;SDS_P2;PMS_P1;PMS_P2;Temp;Humidity;BMP_temperature;BMP_pressure;BME280_temperature;BME280_humidity;BME280_pressure;Samples;Min_cycle;Max_cycle;Signal;HPM_P1;HPM_P2
2021/05/09 00:01:03;;;;;;;5.07;3.30;;;;;;;11.42;46.40;100510.84;3574765;40;20089;-50
2021/05/09 00:03:31;;;;;;;4.20;3.63;;;;;;;11.42;47.10;100504.00;3574994;40;20067;-52
2021/05/09 00:05:58;;;;;;;5.35;3.80;;;;;;;11.54;46.41;100500.78;3573629;40;20144;-51
2021/05/09 00:08:24;;;;;;;3.63;3.33;;;;;;;11.48;47.16;100498.13;3574571;40;20113;-52
2021/05/09 00:10:51;;;;;;;9.93;3.55;;;;;;;11.69;46.41;100506.22;3574499;40;20108;-54
2021/05/09 00:13:18;;;;;;;4.65;3.40;;;;;;;11.83;45.89;100509.06;3570363;40;20444;-51
2021/05/09 00:15:47;;;;;;;4.28;3.63;;;;;;;11.55;47.11;100499.09;3570232;40;20317;-52
2021/05/09 00:18:13;;;;;;;4.32;3.92;;;;;;;11.63;46.83;100490.69;3574544;40;20073;-52
2021/05/09 00:20:40;;;;;;;4.80;3.75;;;;;;;11.54;46.38;100492.25;3574155;40;20155;-54
2021/05/09 00:23:22;;;;;;;4.57;3.78;;;;;;;11.67;47.35;100492.50;3574461;40;20129;-54
2021/05/09 00:25:53;;;;;;;6.20;3.70;;;;;;;11.64;46.66;100489.00;3573948;40;20056;-48
2021/05/09 00:28:23;;;;;;;5.85;3.45;;;;;;;11.77;46.93;100487.53;3573081;40;20127;-55
2021/05/09 00:30:49;;;;;;;4.60;3.42;;;;;;;11.86;46.51;100500.53;3574245;40;20451;-53
2021/05/09 00:33:16;;;;;;;5.32;3.60;;;;;;;11.69;46.91;100498.53;3572028;40;20467;-56
2021/05/09 00:35:42;;;;;;;3.75;3.33;;;;;;;11.64;47.20;100496.69;3575909;40;20163;-47
2021/05/09 00:38:09;;;;;;;4.03;3.63;;;;;;;11.90;46.44;100502.31;3576538;40;20052;-56
2021/05/09 00:40:36;;;;;;;5.32;3.95;;;;;;;11.82;46.93;100507.31;3569170;40;20049;-60
2021/05/09 00:43:02;;;;;;;4.50;3.40;;;;;;;11.69;47.14;100497.63;3574393;40;20083;-54
2021/05/09 00:45:29;;;;;;;4.50;3.40;;;;;;;11.63;47.42;100490.69;3574351;40;20072;-51
2021/05/09 00:47:55;;;;;;;4.35;3.95;;;;;;;11.44;47.89;100492.06;3574155;40;20101;-49
2021/05/09 00:50:22;;;;;;;8.55;3.72;;;;;;;11.78;47.47;100497.81;3570147;40;20116;-53
2021/05/09 00:52:49;;;;;;;4.07;3.30;;;;;;;11.92;46.52;100498.97;3569266;40;20072;-51
2021/05/09 00:55:16;;;;;;;5.13;3.85;;;;;;;11.70;47.01;100484.00;3572361;40;20095;-52
2021/05/09 00:57:45;;;;;;;4.22;3.30;;;;;;;11.47;47.89;100481.00;3574944;40;20359;-51
2021/05/09 01:00:13;;;;;;;6.38;3.65;;;;;;;11.47;48.13;100476.75;3574959;40;20077;-54
2021/05/09 01:02:44;;;;;;;3.67;3.30;;;;;;;11.63;48.48;100475.31;3574130;40;20052;-53
2021/05/09 01:05:13;;;;;;;3.92;3.33;;;;;;;11.72;47.03;100480.59;3576047;40;20842;-53
2021/05/09 01:07:40;;;;;;;3.97;3.55;;;;;;;11.85;47.96;100474.03;3574033;40;20087;-53
2021/05/09 01:10:09;;;;;;;5.72;3.72;;;;;;;11.56;48.59;100470.06;3573733;40;20625;-56
2021/05/09 01:12:36;;;;;;;4.93;3.67;;;;;;;11.50;48.48;100472.50;3574400;40;20060;-47
2021/05/09 01:15:07;;;;;;;4.18;3.25;;;;;;;11.67;47.70;100471.13;3574374;40;20094;-57
2021/05/09 01:17:34;;;;;;;3.80;3.40;;;;;;;11.84;47.79;100466.31;3574274;40;20068;-51
2021/05/09 01:20:09;;;;;;;4.03;3.63;;;;;;;11.61;47.24;100468.44;3574628;40;20125;-49
2021/05/09 01:22:36;;;;;;;5.53;4.18;;;;;;;11.73;47.26;100469.50;3574151;40;20415;-51
2021/05/09 01:25:05;;;;;;;5.20;3.45;;;;;;;11.47;48.97;100465.63;3571042;40;20171;-57
2021/05/09 01:27:31;;;;;;;4.65;3.63;;;;;;;11.82;47.51;100471.41;3574640;40;20079;-56
2021/05/09 01:29:58;;;;;;;3.55;3.25;;;;;;;11.83;47.25;100473.16;3572593;40;20113;-50
2021/05/09 01:32:24;;;;;;;4.45;3.80;;;;;;;11.69;49.53;100469.41;3574969;40;20064;-49
2021/05/09 01:34:52;;;;;;;3.75;3.35;;;;;;;11.79;48.13;100465.34;3573910;40;20886;-49
2021/05/09 01:37:19;;;;;;;5.45;3.58;;;;;;;11.58;47.67;100466.69;3573344;40;20442;-54
2021/05/09 01:39:45;;;;;;;3.60;3.30;;;;;;;11.59;48.71;100462.41;3575287;40;20052;-56
2021/05/09 01:42:12;;;;;;;4.13;3.40;;;;;;;11.56;48.46;100468.38;3578083;40;20284;-52
2021/05/09 01:44:54;;;;;;;6.32;3.65;;;;;;;11.50;49.15;100462.25;3576561;40;20108;-56
2021/05/09 01:47:21;;;;;;;3.83;3.00;;;;;;;11.76;48.93;100458.44;3576050;40;20439;-54
2021/05/09 01:49:48;;;;;;;3.90;3.58;;;;;;;11.61;49.25;100458.19;3574859;40;20056;-51
2021/05/09 01:52:15;;;;;;;4.50;3.20;;;;;;;11.59;50.16;100454.72;3573240;40;20133;-54
2021/05/09 01:54:43;;;;;;;3.97;3.17;;;;;;;11.64;48.88;100447.97;3571944;40;20087;-51
2021/05/09 01:57:10;;;;;;;3.65;3.35;;;;;;;11.22;50.68;100444.66;3568527;40;20056;-55
2021/05/09 01:59:37;;;;;;;4.18;3.78;;;;;;;11.33;51.52;100441.44;3573876;40;20068;-51
2021/05/09 02:02:03;;;;;;;4.05;3.40;;;;;;;11.37;50.68;100438.06;3573791;40;20049;-51
2021/05/09 02:04:30;;;;;;;4.15;3.25;;;;;;;11.43;49.30;100441.63;3569276;40;20107;-53
2021/05/09 02:06:56;;;;;;;4.25;3.15;;;;;;;11.27;49.82;100434.47;3573805;40;20113;-51
2021/05/09 02:09:23;;;;;;;5.15;3.95;;;;;;;11.27;50.81;100434.47;3573809;40;20341;-52
2021/05/09 02:11:49;;;;;;;5.00;3.40;;;;;;;11.33;50.72;100432.06;3574058;40;20457;-49
2021/05/09 02:14:16;;;;;;;3.63;3.33;;;;;;;11.41;49.69;100432.16;3571143;40;20062;-55
2021/05/09 02:16:42;;;;;;;8.90;3.88;;;;;;;11.37;49.57;100438.06;3573525;40;20132;-52
2021/05/09 02:19:09;;;;;;;4.95;3.65;;;;;;;11.22;50.67;100434.41;3575715;40;20056;-49
2021/05/09 02:21:36;;;;;;;3.92;3.60;;;;;;;11.28;51.14;100427.66;3573802;40;20116;-48
2021/05/09 02:24:03;;;;;;;5.53;3.88;;;;;;;11.31;50.27;100431.13;3573466;40;20052;-51
2021/05/09 02:26:30;;;;;;;4.93;3.38;;;;;;;11.34;50.30;100426.09;3565925;40;20065;-54
2021/05/09 02:28:56;;;;;;;4.25;3.60;;;;;;;11.42;49.90;100423.66;3573350;40;20060;-48
2021/05/09 02:31:23;;;;;;;4.18;3.40;;;;;;;11.38;49.79;100417.63;3568050;40;20108;-51
2021/05/09 02:33:49;;;;;;;4.22;3.78;;;;;;;11.28;50.24;100420.84;3573595;40;20403;-52
2021/05/09 02:36:16;;;;;;;5.38;3.47;;;;;;;11.36;50.15;100416.69;3572274;40;20101;-51
2021/05/09 02:38:42;;;;;;;4.32;3.20;;;;;;;11.44;50.75;100420.28;3572595;40;20064;-52
2021/05/09 02:41:09;;;;;;;4.63;3.40;;;;;;;11.31;49.86;100426.00;3573323;40;20425;-55
2021/05/09 02:43:35;;;;;;;5.00;3.47;;;;;;;11.47;49.87;100427.16;3573085;40;20092;-55
2021/05/09 02:46:02;;;;;;;5.18;3.38;;;;;;;11.32;50.36;100425.16;3575294;40;20115;-53
2021/05/09 02:48:30;;;;;;;4.50;3.50;;;;;;;11.33;50.79;100429.50;3571008;40;20097;-53
2021/05/09 02:50:57;;;;;;;4.10;3.17;;;;;;;11.38;50.06;100430.44;3573772;40;20048;-53
2021/05/09 02:53:23;;;;;;;3.45;3.15;;;;;;;11.37;50.24;100423.59;3573799;40;20439;-56
2021/05/09 02:55:50;;;;;;;3.90;3.40;;;;;;;11.16;50.78;100418.06;3572916;40;20068;-55
2021/05/09 02:58:16;;;;;;;5.13;3.97;;;;;;;11.14;51.83;100425.72;3573070;40;20060;-53
2021/05/09 03:00:43;;;;;;;5.72;4.10;;;;;;;11.05;51.06;100419.56;3566826;40;20526;-53
2021/05/09 03:03:09;;;;;;;4.68;3.38;;;;;;;10.99;51.78;100422.84;3573268;40;20104;-57
2021/05/09 03:05:36;;;;;;;4.13;3.35;;;;;;;11.03;51.95;100411.81;3573140;40;20423;-55
2021/05/09 03:08:03;;;;;;;5.57;3.90;;;;;;;10.93;51.91;100420.16;3573128;40;20461;-52
2021/05/09 03:10:30;;;;;;;4.18;3.33;;;;;;;10.87;52.54;100420.06;3573458;40;20124;-51
2021/05/09 03:12:57;;;;;;;3.78;3.33;;;;;;;10.94;52.41;100420.19;3573075;40;20081;-55
2021/05/09 03:15:24;;;;;;;5.25;3.42;;;;;;;10.87;52.33;100427.75;3573115;40;20041;-54
2021/05/09 03:17:50;;;;;;;5.93;3.67;;;;;;;10.80;52.84;100423.31;3573444;40;20059;-55
2021/05/09 03:20:17;;;;;;;3.45;3.08;;;;;;;10.69;53.73;100423.97;3573132;40;20507;-55
2021/05/09 03:22:44;;;;;;;4.55;3.17;;;;;;;10.70;52.88;100419.69;3568517;40;20784;-54
2021/05/09 03:25:11;;;;;;;4.55;3.45;;;;;;;10.50;54.00;100426.97;3568370;40;20068;-52
2021/05/09 03:27:38;;;;;;;4.25;3.25;;;;;;;10.62;53.47;100421.22;3574422;40;20137;-57
2021/05/09 03:30:06;;;;;;;4.18;3.40;;;;;;;10.47;54.76;100418.34;3570352;40;20159;-55
2021/05/09 03:32:32;;;;;;;6.22;3.70;;;;;;;10.16;54.93;100420.19;3575562;40;20097;-54
2021/05/09 03:35:00;;;;;;;3.50;3.15;;;;;;;10.25;55.68;100422.97;3575272;40;20112;-52
2021/05/09 03:37:27;;;;;;;5.30;3.63;;;;;;;10.22;56.35;100416.94;3575564;40;20068;-57
2021/05/09 03:39:53;;;;;;;5.43;3.53;;;;;;;10.20;56.79;100416.88;3575246;40;20089;-51
2021/05/09 03:42:20;;;;;;;6.30;3.42;;;;;;;10.24;56.35;100418.69;3574774;40;20044;-55
2021/05/09 03:44:47;;;;;;;3.67;3.15;;;;;;;10.35;55.75;100418.94;3574251;40;20067;-53
2021/05/09 03:47:14;;;;;;;5.28;3.08;;;;;;;10.27;55.27;100413.66;3574364;40;20335;-53
2021/05/09 03:49:41;;;;;;;4.75;3.38;;;;;;;10.16;56.33;100417.63;3573931;40;20073;-56
2021/05/09 03:52:08;;;;;;;3.53;3.08;;;;;;;10.17;55.93;100417.69;3574376;40;20049;-53
2021/05/09 03:54:35;;;;;;;3.65;3.17;;;;;;;10.14;55.84;100409.06;3574491;40;20450;-54
2021/05/09 03:57:01;;;;;;;4.85;3.80;;;;;;;9.93;56.90;100412.84;3574520;40;20379;-55
2021/05/09 03:59:27;;;;;;;5.45;3.30;;;;;;;10.06;56.57;100408.88;3574608;40;20071;-54
2021/05/09 04:01:54;;;;;;;4.57;3.33;;;;;;;10.35;55.59;100419.81;3574426;40;20060;-56
2021/05/09 04:04:21;;;;;;;4.65;3.67;;;;;;;10.29;55.69;100412.00;3574455;40;20350;-57
2021/05/09 04:06:47;;;;;;;5.15;3.88;;;;;;;10.01;57.28;100407.91;3574221;40;20041;-57
2021/05/09 04:09:13;;;;;;;4.03;3.17;;;;;;;10.39;55.65;100410.50;3574401;40;20092;-55
2021/05/09 04:11:40;;;;;;;4.15;3.20;;;;;;;10.43;55.98;100417.41;3572624;40;20052;-54
2021/05/09 04:14:07;;;;;;;5.40;3.60;;;;;;;10.55;55.23;100406.59;3574245;40;20089;-53
2021/05/09 04:16:33;;;;;;;3.63;3.00;;;;;;;10.39;55.89;100411.34;3574187;40;20073;-53
2021/05/09 04:19:00;;;;;;;4.20;3.25;;;;;;;10.36;55.25;100410.44;3566523;40;20053;-50
2021/05/09 04:21:28;;;;;;;4.30;3.13;;;;;;;10.42;56.10;100396.06;3574480;40;20057;-51
2021/05/09 04:23:55;;;;;;;3.28;2.90;;;;;;;10.51;56.37;100397.97;3574237;40;20089;-57
2021/05/09 04:26:23;;;;;;;4.47;3.45;;;;;;;10.58;56.70;100397.25;3563853;40;20056;-53
2021/05/09 04:28:49;;;;;;;3.20;3.00;;;;;;;10.52;56.85;100389.44;3573962;40;20067;-57
2021/05/09 04:31:16;;;;;;;3.53;3.13;;;;;;;10.50;57.16;100383.44;3571666;40;20110;-52
2021/05/09 04:33:42;;;;;;;3.60;3.30;;;;;;;10.67;57.00;100396.56;3573187;40;20342;-55
2021/05/09 04:36:09;;;;;;;3.55;3.17;;;;;;;10.51;56.68;100392.00;3569928;40;20486;-55
2021/05/09 04:38:36;;;;;;;4.18;3.47;;;;;;;10.61;56.57;100387.09;3574032;40;20064;-54
2021/05/09 04:41:02;;;;;;;4.50;3.17;;;;;;;10.78;56.19;100390.00;3574238;40;20057;-54
2021/05/09 04:43:29;;;;;;;4.60;3.20;;;;;;;10.75;56.23;100383.94;3574622;40;20338;-52
2021/05/09 04:45:56;;;;;;;5.47;3.00;;;;;;;10.86;55.63;100385.91;3574218;40;20089;-54
2021/05/09 04:48:23;;;;;;;3.80;3.00;;;;;;;10.86;56.00;100385.00;3573886;40;20045;-56
2021/05/09 04:50:51;;;;;;;4.57;3.40;;;;;;;10.82;55.86;100383.25;3574182;40;20044;-57
2021/05/09 04:53:36;;;;;;;3.03;2.72;;;;;;;10.78;56.29;100389.13;3566051;40;20057;-57
2021/05/09 04:56:08;;;;;;;5.55;3.15;;;;;;;10.95;55.48;100388.63;3572877;40;20223;-55
2021/05/09 04:58:41;;;;;;;4.53;3.10;;;;;;;11.13;54.76;100387.22;3573991;40;20060;-55
2021/05/09 05:01:09;;;;;;;4.28;2.95;;;;;;;11.36;55.04;100390.22;3573963;40;20053;-53
2021/05/09 05:03:37;;;;;;;3.25;2.90;;;;;;;11.41;54.70;100397.13;3574022;40;20152;-52
2021/05/09 05:06:05;;;;;;;5.18;3.40;;;;;;;11.55;54.37;100387.13;3573922;40;20049;-53
2021/05/09 05:08:33;;;;;;;5.05;3.00;;;;;;;11.51;54.85;100384.47;3581019;40;20053;-53
2021/05/09 05:11:01;;;;;;;4.65;3.15;;;;;;;11.69;55.13;100388.25;3563641;40;20285;-55
2021/05/09 05:13:32;;;;;;;3.92;3.17;;;;;;;11.71;54.34;100391.69;3573789;40;20069;-51
2021/05/09 05:16:01;;;;;;;3.25;2.95;;;;;;;11.72;55.14;100393.41;3572553;40;20089;-54
2021/05/09 05:18:28;;;;;;;4.60;3.40;;;;;;;11.91;54.44;100391.16;3573008;40;20068;-54
2021/05/09 05:20:57;;;;;;;3.85;3.25;;;;;;;11.96;53.39;100395.50;3573147;40;20096;-50
2021/05/09 05:23:23;;;;;;;4.10;3.33;;;;;;;12.05;52.96;100388.78;3573233;40;20073;-50
2021/05/09 05:25:50;;;;;;;5.30;3.20;;;;;;;12.17;54.46;100389.84;3573702;40;20076;-54
2021/05/09 05:28:16;;;;;;;4.85;3.15;;;;;;;12.30;53.16;100382.31;3571751;40;20048;-54
2021/05/09 05:30:45;;;;;;;4.50;3.20;;;;;;;12.46;52.56;100394.50;3573833;40;20540;-55
2021/05/09 05:33:24;;;;;;;3.42;2.88;;;;;;;12.70;52.50;100383.69;3564368;40;20080;-56
2021/05/09 05:35:51;;;;;;;3.72;2.85;;;;;;;12.89;52.51;100385.59;3573007;40;20097;-55
2021/05/09 05:38:18;;;;;;;3.60;3.30;;;;;;;12.96;51.37;100391.69;3571056;40;20049;-52
2021/05/09 05:40:48;;;;;;;4.78;3.08;;;;;;;13.02;51.45;100399.47;3566174;40;20073;-53
2021/05/09 05:43:15;;;;;;;3.03;2.72;;;;;;;13.15;50.78;100388.47;3575580;40;20064;-54
2021/05/09 05:45:42;;;;;;;3.10;2.70;;;;;;;13.32;50.71;100388.69;3575417;40;20060;-55
2021/05/09 05:48:13;;;;;;;3.60;2.83;;;;;;;13.62;49.73;100398.38;3572359;40;20045;-56
2021/05/09 05:50:42;;;;;;;2.80;2.40;;;;;;;13.75;49.64;100389.03;3575653;40;20709;-53
2021/05/09 05:53:09;;;;;;;3.63;2.90;;;;;;;13.68;50.29;100394.97;3576545;40;20072;-55
2021/05/09 05:55:35;;;;;;;3.42;2.70;;;;;;;13.62;51.14;100394.94;3577830;40;20093;-56
2021/05/09 05:58:04;;;;;;;3.97;2.63;;;;;;;13.73;50.08;100391.63;3575047;40;20064;-56
2021/05/09 06:00:31;;;;;;;3.33;2.60;;;;;;;13.69;50.33;100401.88;3576791;40;20547;-54
2021/05/09 06:02:58;;;;;;;4.65;2.92;;;;;;;13.90;50.00;100399.44;3576772;40;20061;-55
2021/05/09 06:05:25;;;;;;;3.67;2.83;;;;;;;14.03;50.08;100400.41;3577912;40;20048;-55
2021/05/09 06:07:52;;;;;;;3.25;2.28;;;;;;;14.25;49.34;100399.69;3673909;22;20072;-57
2021/05/09 06:10:18;;;;;;;2.63;2.42;;;;;;;14.19;49.34;100409.97;3563587;40;20057;-53
2021/05/09 06:12:45;;;;;;;3.15;2.70;;;;;;;14.23;49.13;100410.81;3564434;40;20439;-48
2021/05/09 06:15:11;;;;;;;3.95;2.55;;;;;;;14.25;49.26;100412.56;3562884;40;20064;-48
2021/05/09 06:17:41;;;;;;;4.32;2.78;;;;;;;14.36;48.91;100404.91;3563457;40;20064;-47
2021/05/09 06:20:08;;;;;;;3.92;2.40;;;;;;;14.65;51.47;100404.22;3559743;40;20127;-50
2021/05/09 06:22:35;;;;;;;4.30;2.40;;;;;;;14.57;48.63;100409.34;3559474;40;20062;-53
2021/05/09 06:25:04;;;;;;;4.00;2.65;;;;;;;14.99;48.82;100407.78;3559282;40;20065;-54
2021/05/09 06:27:30;;;;;;;3.92;2.63;;;;;;;15.11;47.46;100412.13;3560110;40;20057;-48
2021/05/09 06:29:57;;;;;;;2.80;2.60;;;;;;;15.06;48.57;100403.50;3559484;40;20056;-49
2021/05/09 06:32:24;;;;;;;3.72;2.67;;;;;;;15.25;47.48;100406.16;3558701;40;20057;-53
2021/05/09 06:34:51;;;;;;;3.63;2.35;;;;;;;15.43;47.57;100400.13;3559989;40;20500;-52
2021/05/09 06:37:18;;;;;;;3.60;2.38;;;;;;;15.44;46.69;100401.88;3558586;40;20062;-47
2021/05/09 06:39:44;;;;;;;2.53;2.30;;;;;;;15.61;47.06;100407.03;3560050;40;20101;-47
2021/05/09 06:42:11;;;;;;;3.55;2.58;;;;;;;15.74;47.20;100407.94;3558367;40;20070;-54
2021/05/09 06:44:45;;;;;;;2.97;2.33;;;;;;;15.88;46.23;100407.94;3560283;40;20065;-56
2021/05/09 06:47:11;;;;;;;2.45;2.25;;;;;;;16.07;46.53;100403.59;3557930;40;20072;-54
2021/05/09 06:49:38;;;;;;;3.17;2.33;;;;;;;16.12;47.42;100407.91;3559175;40;20065;-50
2021/05/09 06:52:05;;;;;;;2.30;2.10;;;;;;;16.17;46.31;100413.91;3558024;40;20060;-48
2021/05/09 06:54:31;;;;;;;3.70;2.78;;;;;;;16.34;46.32;100400.97;3559233;40;20120;-55
2021/05/09 06:57:02;;;;;;;3.30;2.05;;;;;;;16.53;46.03;100405.22;3559529;40;20081;-48
2021/05/09 06:59:30;;;;;;;2.85;2.45;;;;;;;16.67;45.34;100415.50;3558034;40;20065;-50
2021/05/09 07:01:57;;;;;;;2.85;2.65;;;;;;;16.95;45.38;100405.09;3560363;40;20061;-49
2021/05/09 07:04:24;;;;;;;2.30;2.10;;;;;;;17.14;45.12;100411.88;3560115;40;20460;-57
2021/05/09 07:06:51;;;;;;;3.30;1.98;;;;;;;17.44;44.34;100408.25;3561154;40;20061;-48
2021/05/09 07:09:17;;;;;;;2.88;2.15;;;;;;;17.90;43.86;100405.31;3552658;40;20066;-49
2021/05/09 07:11:44;;;;;;;2.35;1.98;;;;;;;18.08;43.04;100406.88;3562410;40;20061;-48
2021/05/09 07:14:10;;;;;;;1.92;1.80;;;;;;;18.21;42.88;100407.59;3563201;40;20053;-50
2021/05/09 07:16:37;;;;;;;2.58;1.70;;;;;;;18.67;41.99;100414.88;3564799;40;20355;-55
2021/05/09 07:19:06;;;;;;;2.72;1.67;;;;;;;18.74;41.63;100403.59;3560751;40;20053;-51
2021/05/09 07:21:40;;;;;;;2.20;1.83;;;;;;;18.60;41.61;100400.28;3560867;40;20064;-54
2021/05/09 07:24:08;;;;;;;3.05;2.00;;;;;;;18.51;43.07;100407.28;3560868;40;20086;-49
2021/05/09 07:26:35;;;;;;;3.35;2.17;;;;;;;18.86;41.53;100410.34;3560882;40;20069;-53
2021/05/09 07:29:01;;;;;;;2.58;1.67;;;;;;;19.18;42.12;100409.91;3561163;40;20573;-50
2021/05/09 07:31:28;;;;;;;1.70;1.60;;;;;;;19.15;41.60;100413.44;3560904;40;20050;-50
2021/05/09 07:34:00;;;;;;;2.50;2.30;;;;;;;18.88;40.69;100406.88;3562966;40;20427;-49
2021/05/09 07:36:27;;;;;;;2.53;2.33;;;;;;;19.17;41.92;100400.41;3562517;40;20054;-53
2021/05/09 07:38:53;;;;;;;2.65;1.88;;;;;;;18.81;41.99;100387.94;3565701;40;20065;-48
2021/05/09 07:41:20;;;;;;;4.05;2.08;;;;;;;18.58;42.51;100397.72;3563904;40;20290;-47
2021/05/09 07:43:47;;;;;;;1.83;1.73;;;;;;;18.80;42.66;100393.97;3563725;40;20041;-50
2021/05/09 07:46:14;;;;;;;2.58;1.70;;;;;;;18.77;43.02;100388.84;3562001;40;20057;-51
2021/05/09 07:48:41;;;;;;;2.60;1.70;;;;;;;18.38;42.35;100391.88;3554122;40;20053;-47
2021/05/09 07:51:07;;;;;;;3.05;1.80;;;;;;;18.85;42.53;100387.88;3562574;40;20096;-53
2021/05/09 07:53:34;;;;;;;3.03;1.85;;;;;;;18.90;42.80;100389.53;3562838;40;20052;-47
2021/05/09 07:56:00;;;;;;;2.67;1.67;;;;;;;18.78;41.97;100376.75;3562658;40;20073;-48
2021/05/09 07:58:27;;;;;;;2.60;1.98;;;;;;;19.03;41.88;100391.09;3562346;40;20447;-49
2021/05/09 08:00:54;;;;;;;3.55;1.65;;;;;;;18.68;43.68;100380.31;3563206;40;20411;-48
2021/05/09 08:03:21;;;;;;;2.13;1.40;;;;;;;19.05;42.12;100383.28;3563536;40;20053;-48
2021/05/09 08:05:47;;;;;;;1.73;1.48;;;;;;;19.02;42.39;100379.00;3564984;40;20068;-47
2021/05/09 08:08:14;;;;;;;2.13;1.58;;;;;;;19.27;42.28;100379.50;3561772;40;20054;-52
2021/05/09 08:10:42;;;;;;;2.78;1.40;;;;;;;19.30;41.13;100374.25;3563239;40;20056;-49
2021/05/09 08:13:11;;;;;;;1.30;1.20;;;;;;;19.31;41.74;100375.09;3562122;40;20064;-53
2021/05/09 08:15:38;;;;;;;1.27;1.17;;;;;;;19.65;42.24;100369.44;3563221;40;20049;-47
2021/05/09 08:18:05;;;;;;;2.05;1.15;;;;;;;20.01;40.30;100374.00;3562597;40;20061;-48
2021/05/09 08:20:33;;;;;;;1.38;1.27;;;;;;;19.93;39.60;100375.88;3562887;40;20046;-49
2021/05/09 08:22:59;;;;;;;2.08;1.35;;;;;;;20.33;40.52;100375.94;3563308;40;20053;-52
2021/05/09 08:25:26;;;;;;;1.85;1.38;;;;;;;21.01;38.86;100375.44;3562348;40;20062;-49
2021/05/09 08:27:53;;;;;;;3.20;1.77;;;;;;;21.29;37.52;100386.09;3562826;40;20252;-54
2021/05/09 08:30:25;;;;;;;3.63;1.42;;;;;;;21.65;37.29;100385.28;3551880;40;20045;-52
2021/05/09 08:32:58;;;;;;;1.95;1.40;;;;;;;21.76;37.13;100397.13;3563385;40;20053;-52
2021/05/09 08:35:25;;;;;;;2.40;1.08;;;;;;;21.93;35.99;100391.50;3562033;40;20066;-52
2021/05/09 08:37:52;;;;;;;1.45;1.15;;;;;;;22.08;35.37;100391.09;3563034;40;20038;-52
2021/05/09 08:40:18;;;;;;;2.22;1.25;;;;;;;22.07;35.90;100384.16;3561619;40;20058;-52
2021/05/09 08:42:48;;;;;;;4.03;1.40;;;;;;;22.11;35.79;100379.72;3563280;40;20069;-49
2021/05/09 08:45:16;;;;;;;2.75;1.30;;;;;;;22.07;36.78;100386.78;3561478;40;20070;-52
2021/05/09 08:47:43;;;;;;;1.30;1.20;;;;;;;21.99;36.49;100385.25;3553258;40;20053;-53
2021/05/09 08:50:21;;;;;;;17.23;1.98;;;;;;;22.00;37.24;100358.28;3561163;40;20048;-52
2021/05/09 08:52:49;;;;;;;4.72;1.30;;;;;;;21.88;37.20;100356.88;3562150;40;20154;-53
2021/05/09 08:55:21;;;;;;;1.52;1.42;;;;;;;22.27;36.11;100356.72;3561736;40;20424;-49
2021/05/09 08:57:48;;;;;;;2.20;1.10;;;;;;;22.66;35.95;100359.09;3554412;40;20072;-50
2021/05/09 09:00:16;;;;;;;2.35;1.40;;;;;;;22.49;35.88;100355.22;3561385;40;20061;-50
2021/05/09 09:03:04;;;;;;;1.92;1.13;;;;;;;22.45;35.72;100350.13;3562665;40;20054;-51
2021/05/09 09:05:42;;;;;;;1.20;1.10;;;;;;;22.86;35.47;100354.97;3564043;40;20069;-49
2021/05/09 09:08:10;;;;;;;2.35;1.13;;;;;;;22.64;34.44;100348.69;3563074;40;20072;-55
2021/05/09 09:10:40;;;;;;;1.67;1.17;;;;;;;22.95;34.63;100363.47;3562680;40;20049;-53
2021/05/09 09:13:22;;;;;;;1.00;0.80;;;;;;;22.67;35.49;100346.00;3561864;40;20045;-54
2021/05/09 09:16:05;;;;;;;2.28;1.35;;;;;;;22.85;34.69;100344.59;3562536;40;20049;-53
2021/05/09 09:18:42;;;;;;;2.58;1.25;;;;;;;23.26;35.49;100345.94;3561225;40;20058;-53
2021/05/09 09:21:24;;;;;;;1.08;0.90;;;;;;;22.78;35.11;100343.06;3562507;40;20057;-53
2021/05/09 09:23:55;;;;;;;1.75;0.90;;;;;;;22.76;34.97;100335.28;3585952;40;20053;-55
2021/05/09 09:26:31;;;;;;;2.50;1.30;;;;;;;23.16;34.96;100327.97;3584864;40;20072;-50
2021/05/09 09:29:00;;;;;;;2.05;1.20;;;;;;;23.56;35.47;100331.00;3584859;40;20041;-49
2021/05/09 09:31:44;;;;;;;2.25;0.90;;;;;;;23.36;35.09;100338.66;3586241;40;20063;-50
2021/05/09 09:34:12;;;;;;;2.55;1.08;;;;;;;23.35;34.63;100335.19;3585814;40;20479;-54
2021/05/09 09:36:39;;;;;;;1.60;1.05;;;;;;;22.98;36.50;100319.84;3586486;40;20055;-49
2021/05/09 09:39:07;;;;;;;1.98;1.15;;;;;;;23.31;35.01;100340.56;3586372;40;20358;-50
2021/05/09 09:41:34;;;;;;;1.52;1.42;;;;;;;23.38;35.34;100321.16;3586289;40;20056;-50
2021/05/09 09:44:08;;;;;;;1.83;1.10;;;;;;;23.65;33.81;100326.41;3586034;40;20075;-52
2021/05/09 09:46:40;;;;;;;2.03;1.02;;;;;;;24.39;33.85;100347.28;3585888;40;20305;-56
2021/05/09 09:49:30;;;;;;;2.22;1.40;;;;;;;25.16;32.36;100335.69;3584852;40;20145;-51
2021/05/09 09:52:02;;;;;;;1.73;1.10;;;;;;;24.75;33.61;100331.13;3579399;40;20174;-48
2021/05/09 09:54:33;;;;;;;2.67;1.10;;;;;;;27.06;29.58;100331.63;3585663;40;20054;-54
2021/05/09 09:57:01;;;;;;;2.35;1.23;;;;;;;28.35;27.63;100333.03;3585393;40;20052;-49
2021/05/09 09:59:27;;;;;;;2.90;1.20;;;;;;;30.50;25.09;100327.50;3585503;40;20041;-49
2021/05/09 10:01:56;;;;;;;3.13;1.48;;;;;;;31.97;23.74;100322.28;3579463;40;20425;-50
2021/05/09 10:04:23;;;;;;;2.30;1.10;;;;;;;32.44;22.73;100318.97;3585990;40;20095;-49
2021/05/09 10:06:49;;;;;;;1.50;1.10;;;;;;;32.07;22.27;100313.59;3585882;40;20096;-52
2021/05/09 10:09:16;;;;;;;2.33;1.20;;;;;;;33.55;22.28;100317.84;3583817;40;20033;-53
2021/05/09 10:11:43;;;;;;;1.60;1.00;;;;;;;34.50;20.75;100329.06;3584570;40;20056;-53
2021/05/09 10:14:10;;;;;;;1.20;1.10;;;;;;;33.78;20.91;100334.66;3586080;40;20072;-53
2021/05/09 10:16:48;;;;;;;2.30;1.23;;;;;;;34.15;20.56;100335.34;3579507;40;20048;-53
2021/05/09 10:19:20;;;;;;;1.33;1.20;;;;;;;34.01;21.48;100330.25;3585491;40;20418;-56
2021/05/09 10:21:50;;;;;;;1.80;1.17;;;;;;;35.74;18.63;100341.94;3585214;40;20041;-55
2021/05/09 10:24:18;;;;;;;1.65;1.08;;;;;;;35.25;19.00;100333.56;3584119;40;20057;-57
2021/05/09 10:26:55;;;;;;;3.22;1.20;;;;;;;35.60;18.18;100332.47;3585241;40;20137;-58
2021/05/09 10:29:40;;;;;;;1.65;1.40;;;;;;;36.62;17.91;100336.88;3584453;40;20056;-51
2021/05/09 10:32:19;;;;;;;2.30;1.23;;;;;;;36.02;18.79;100327.09;3585711;40;20416;-52
2021/05/09 10:37:45;;;;;;;1.67;1.27;;;;;;;36.99;18.16;100338.09;3584439;40;20068;-58
2021/05/09 10:40:23;;;;;;;2.85;1.10;;;;;;;37.05;17.29;100327.66;3588366;40;20095;-55
2021/05/09 10:43:01;;;;;;;1.10;1.08;;;;;;;38.30;16.50;100322.22;3584259;40;20313;-56
2021/05/09 10:45:28;;;;;;;1.33;1.10;;;;;;;36.74;17.74;100307.38;3584846;40;20049;-55
2021/05/09 10:48:32;;;;;;;1.55;1.10;;;;;;;37.87;16.48;100303.13;3585687;40;20088;-54
2021/05/09 10:51:01;;;;;;;1.35;1.20;;;;;;;38.50;16.40;100317.59;3535097;40;20046;-56
2021/05/09 10:53:33;;;;;;;2.40;1.25;;;;;;;36.77;18.12;100299.94;3577117;40;20112;-55
2021/05/09 10:56:04;;;;;;;1.60;1.50;;;;;;;39.84;15.77;100312.09;3584927;40;20053;-55
2021/05/09 10:58:39;;;;;;;1.35;1.25;;;;;;;39.62;16.17;100304.59;3585357;40;20056;-55
2021/05/09 11:01:09;;;;;;;1.75;1.15;;;;;;;38.12;16.20;100298.09;3584720;40;20056;-55
2021/05/09 11:03:39;;;;;;;3.15;1.15;;;;;;;38.37;16.08;100289.41;3585493;40;20338;-54
2021/05/09 11:06:05;;;;;;;1.90;1.10;;;;;;;37.59;16.20;100294.19;3585619;40;20052;-51
2021/05/09 11:08:48;;;;;;;1.63;1.20;;;;;;;37.13;16.55;100305.63;3585086;40;20071;-58
2021/05/09 11:11:19;;;;;;;2.88;1.45;;;;;;;36.12;17.16;100296.00;3585467;40;20306;-51
2021/05/09 11:16:27;;;;;;;2.90;1.25;;;;;;;37.17;16.95;100289.16;3584493;40;20067;-55
2021/05/09 11:19:19;;;;;;;10.20;1.45;;;;;;;37.72;15.65;100273.31;3584889;40;20406;-52
2021/05/09 11:21:50;;;;;;;2.13;1.50;;;;;;;37.64;16.19;100285.72;3584469;40;20115;-53
2021/05/09 11:24:23;;;;;;;3.85;1.17;;;;;;;39.68;15.17;100288.72;3582759;40;20044;-54
2021/05/09 11:26:52;;;;;;;3.10;1.40;;;;;;;40.25;14.68;100284.63;3584537;40;20053;-51
2021/05/09 11:29:23;;;;;;;1.88;1.30;;;;;;;38.87;15.25;100272.00;3583193;40;20055;-51
2021/05/09 11:31:54;;;;;;;2.75;1.30;;;;;;;38.16;16.00;100272.72;3585160;40;20052;-55
2021/05/09 11:34:24;;;;;;;2.05;1.30;;;;;;;39.49;14.93;100288.09;3584080;40;20318;-54
2021/05/09 11:36:55;;;;;;;1.30;1.20;;;;;;;38.47;15.25;100273.28;3578389;40;20414;-58